sensor_id;sensor_type;location;lat;lon;timestamp;P1;durP1;ratioP1;P2;durP2;ratioP2
2147;SDS011;1080;48.724;9.104;2022-12-16T00:01:01;32.43;;;16.90;;
2147;SDS011;1080;48.724;9.104;2022-12-16T00:03:29;30.00;;;18.10;;
2147;SDS011;1080;48.724;9.104;2022-12-16T00:05:56;34.47;;;17.43;;
2147;SDS011;1080;48.724;9.104;2022-12-16T00:08:25;27.80;;;16.73;;
2147;SDS011;1080;48.724;9.104;2022-12-16T00:10:55;26.13;;;14.83;;
2147;SDS011;1080;48.724;9.104;2022-12-16T00:13:23;31.10;;;15.93;;
2147;SDS011;1080;48.724;9.104;2022-12-16T00:15:50;28.20;;;16.20;;
2147;SDS011;1080;48.724;9.104;2022-12-16T00:18:17;26.77;;;14.30;;
2147;SDS011;1080;48.724;9.104;2022-12-16T00:20:45;24.27;;;15.33;;
2147;SDS011;1080;48.724;9.104;2022-12-16T00:23:12;29.00;;;17.33;;
2147;SDS011;1080;48.724;9.104;2022-12-16T00:25:41;34.17;;;17.10;;
2147;SDS011;1080;48.724;9.104;2022-12-16T00:28:09;35.10;;;17.07;;
2147;SDS011;1080;48.724;9.104;2022-12-16T00:30:36;30.13;;;18.57;;
2147;SDS011;1080;48.724;9.104;2022-12-16T00:33:03;33.30;;;17.37;;
2147;SDS011;1080;48.724;9.104;2022-12-16T00:35:31;31.53;;;17.90;;
2147;SDS011;1080;48.724;9.104;2022-12-16T00:37:58;31.50;;;16.30;;
2147;SDS011;1080;48.724;9.104;2022-12-16T00:40:25;37.80;;;18.63;;
2147;SDS011;1080;48.724;9.104;2022-12-16T00:42:53;31.80;;;17.10;;
2147;SDS011;1080;48.724;9.104;2022-12-16T00:45:20;31.77;;;16.93;;
2147;SDS011;1080;48.724;9.104;2022-12-16T00:47:48;35.90;;;18.20;;
2147;SDS011;1080;48.724;9.104;2022-12-16T00:50:15;32.50;;;17.40;;
2147;SDS011;1080;48.724;9.104;2022-12-16T00:52:42;27.37;;;15.80;;
2147;SDS011;1080;48.724;9.104;2022-12-16T00:55:10;31.47;;;16.80;;
2147;SDS011;1080;48.724;9.104;2022-12-16T00:57:37;25.93;;;14.53;;
2147;SDS011;1080;48.724;9.104;2022-12-16T01:00:06;35.97;;;17.40;;
2147;SDS011;1080;48.724;9.104;2022-12-16T01:02:37;38.67;;;17.57;;
2147;SDS011;1080;48.724;9.104;2022-12-16T01:05:04;34.10;;;16.00;;
2147;SDS011;1080;48.724;9.104;2022-12-16T01:07:31;29.23;;;14.97;;
2147;SDS011;1080;48.724;9.104;2022-12-16T01:09:58;36.63;;;17.23;;
2147;SDS011;1080;48.724;9.104;2022-12-16T01:12:25;34.97;;;18.13;;
2147;SDS011;1080;48.724;9.104;2022-12-16T01:14:52;33.10;;;17.03;;
2147;SDS011;1080;48.724;9.104;2022-12-16T01:17:21;34.90;;;17.03;;
2147;SDS011;1080;48.724;9.104;2022-12-16T01:19:50;34.90;;;17.77;;
2147;SDS011;1080;48.724;9.104;2022-12-16T01:22:17;39.77;;;17.50;;
2147;SDS011;1080;48.724;9.104;2022-12-16T01:24:44;32.10;;;16.90;;
2147;SDS011;1080;48.724;9.104;2022-12-16T01:27:12;31.03;;;16.23;;
2147;SDS011;1080;48.724;9.104;2022-12-16T01:29:39;32.93;;;17.63;;
2147;SDS011;1080;48.724;9.104;2022-12-16T01:32:07;32.73;;;16.70;;
2147;SDS011;1080;48.724;9.104;2022-12-16T01:34:38;27.03;;;15.47;;
2147;SDS011;1080;48.724;9.104;2022-12-16T01:37:05;39.57;;;17.70;;
2147;SDS011;1080;48.724;9.104;2022-12-16T01:39:32;29.87;;;16.47;;
2147;SDS011;1080;48.724;9.104;2022-12-16T01:41:59;32.27;;;17.37;;
2147;SDS011;1080;48.724;9.104;2022-12-16T01:44:26;31.57;;;16.27;;
2147;SDS011;1080;48.724;9.104;2022-12-16T01:46:53;30.50;;;16.03;;
2147;SDS011;1080;48.724;9.104;2022-12-16T01:49:23;30.00;;;16.77;;
2147;SDS011;1080;48.724;9.104;2022-12-16T01:51:54;32.87;;;15.40;;
2147;SDS011;1080;48.724;9.104;2022-12-16T01:54:27;32.87;;;17.20;;
2147;SDS011;1080;48.724;9.104;2022-12-16T01:56:57;33.93;;;18.67;;
2147;SDS011;1080;48.724;9.104;2022-12-16T01:59:28;29.07;;;14.97;;
2147;SDS011;1080;48.724;9.104;2022-12-16T02:01:56;28.20;;;15.57;;
2147;SDS011;1080;48.724;9.104;2022-12-16T02:04:24;32.73;;;15.70;;
2147;SDS011;1080;48.724;9.104;2022-12-16T02:06:51;30.13;;;17.10;;
2147;SDS011;1080;48.724;9.104;2022-12-16T02:09:19;26.83;;;15.20;;
2147;SDS011;1080;48.724;9.104;2022-12-16T02:11:54;26.43;;;15.07;;
2147;SDS011;1080;48.724;9.104;2022-12-16T02:14:36;27.97;;;16.67;;
2147;SDS011;1080;48.724;9.104;2022-12-16T02:17:13;29.33;;;17.07;;
2147;SDS011;1080;48.724;9.104;2022-12-16T02:22:50;30.07;;;15.13;;
2147;SDS011;1080;48.724;9.104;2022-12-16T02:25:39;29.73;;;15.67;;
2147;SDS011;1080;48.724;9.104;2022-12-16T02:28:26;28.20;;;14.93;;
2147;SDS011;1080;48.724;9.104;2022-12-16T02:31:09;32.67;;;17.43;;
2147;SDS011;1080;48.724;9.104;2022-12-16T02:33:51;31.70;;;14.93;;
2147;SDS011;1080;48.724;9.104;2022-12-16T02:36:38;30.50;;;15.97;;
2147;SDS011;1080;48.724;9.104;2022-12-16T02:39:16;23.40;;;14.37;;
2147;SDS011;1080;48.724;9.104;2022-12-16T02:41:46;28.70;;;15.13;;
2147;SDS011;1080;48.724;9.104;2022-12-16T02:44:17;31.50;;;16.30;;
2147;SDS011;1080;48.724;9.104;2022-12-16T02:46:52;33.13;;;15.90;;
2147;SDS011;1080;48.724;9.104;2022-12-16T02:49:42;30.43;;;15.80;;
2147;SDS011;1080;48.724;9.104;2022-12-16T02:52:11;26.43;;;12.50;;
2147;SDS011;1080;48.724;9.104;2022-12-16T02:54:39;25.03;;;14.73;;
2147;SDS011;1080;48.724;9.104;2022-12-16T02:57:09;27.07;;;14.87;;
2147;SDS011;1080;48.724;9.104;2022-12-16T02:59:49;29.87;;;14.80;;
2147;SDS011;1080;48.724;9.104;2022-12-16T03:02:23;33.60;;;17.60;;
2147;SDS011;1080;48.724;9.104;2022-12-16T03:04:54;27.07;;;15.60;;
2147;SDS011;1080;48.724;9.104;2022-12-16T03:07:25;28.60;;;14.13;;
2147;SDS011;1080;48.724;9.104;2022-12-16T03:09:54;24.90;;;15.77;;
2147;SDS011;1080;48.724;9.104;2022-12-16T03:12:23;27.67;;;14.43;;
2147;SDS011;1080;48.724;9.104;2022-12-16T03:14:52;29.80;;;16.00;;
2147;SDS011;1080;48.724;9.104;2022-12-16T03:17:20;26.43;;;14.57;;
2147;SDS011;1080;48.724;9.104;2022-12-16T03:19:51;28.07;;;15.40;;
2147;SDS011;1080;48.724;9.104;2022-12-16T03:22:22;27.90;;;15.60;;
2147;SDS011;1080;48.724;9.104;2022-12-16T03:24:54;27.80;;;15.00;;
2147;SDS011;1080;48.724;9.104;2022-12-16T03:27:23;27.07;;;15.30;;
2147;SDS011;1080;48.724;9.104;2022-12-16T03:29:57;24.37;;;13.70;;
2147;SDS011;1080;48.724;9.104;2022-12-16T03:32:31;31.40;;;14.90;;
2147;SDS011;1080;48.724;9.104;2022-12-16T03:35:01;22.60;;;14.13;;
2147;SDS011;1080;48.724;9.104;2022-12-16T03:37:34;28.70;;;15.47;;
2147;SDS011;1080;48.724;9.104;2022-12-16T03:40:04;30.20;;;14.43;;
2147;SDS011;1080;48.724;9.104;2022-12-16T03:42:33;25.70;;;14.87;;
2147;SDS011;1080;48.724;9.104;2022-12-16T03:45:00;27.90;;;15.27;;
2147;SDS011;1080;48.724;9.104;2022-12-16T03:47:28;30.93;;;15.93;;
2147;SDS011;1080;48.724;9.104;2022-12-16T03:49:56;34.93;;;16.23;;
2147;SDS011;1080;48.724;9.104;2022-12-16T03:52:23;35.80;;;18.07;;
2147;SDS011;1080;48.724;9.104;2022-12-16T03:54:50;29.17;;;14.20;;
2147;SDS011;1080;48.724;9.104;2022-12-16T03:57:17;27.37;;;14.90;;
2147;SDS011;1080;48.724;9.104;2022-12-16T03:59:44;25.00;;;12.23;;
2147;SDS011;1080;48.724;9.104;2022-12-16T04:02:11;21.50;;;13.63;;
2147;SDS011;1080;48.724;9.104;2022-12-16T04:04:38;30.27;;;14.50;;
2147;SDS011;1080;48.724;9.104;2022-12-16T04:07:07;24.83;;;13.63;;
2147;SDS011;1080;48.724;9.104;2022-12-16T04:09:45;32.37;;;16.00;;
2147;SDS011;1080;48.724;9.104;2022-12-16T04:12:13;31.70;;;15.63;;
2147;SDS011;1080;48.724;9.104;2022-12-16T04:14:58;23.70;;;12.83;;
2147;SDS011;1080;48.724;9.104;2022-12-16T04:17:42;28.60;;;16.10;;
2147;SDS011;1080;48.724;9.104;2022-12-16T04:20:28;22.57;;;13.00;;
2147;SDS011;1080;48.724;9.104;2022-12-16T04:23:16;22.07;;;13.53;;
2147;SDS011;1080;48.724;9.104;2022-12-16T04:26:00;28.03;;;14.80;;
2147;SDS011;1080;48.724;9.104;2022-12-16T04:28:28;19.80;;;12.33;;
2147;SDS011;1080;48.724;9.104;2022-12-16T04:30:55;28.07;;;13.30;;
2147;SDS011;1080;48.724;9.104;2022-12-16T04:33:22;24.40;;;11.93;;
2147;SDS011;1080;48.724;9.104;2022-12-16T04:36:07;23.37;;;13.37;;
2147;SDS011;1080;48.724;9.104;2022-12-16T04:38:53;28.43;;;12.73;;
2147;SDS011;1080;48.724;9.104;2022-12-16T04:41:37;23.77;;;12.77;;
2147;SDS011;1080;48.724;9.104;2022-12-16T04:44:22;21.40;;;11.60;;
2147;SDS011;1080;48.724;9.104;2022-12-16T04:47:06;24.83;;;13.00;;
2147;SDS011;1080;48.724;9.104;2022-12-16T04:49:51;20.93;;;11.80;;
2147;SDS011;1080;48.724;9.104;2022-12-16T04:52:35;19.20;;;10.90;;
2147;SDS011;1080;48.724;9.104;2022-12-16T04:55:21;20.00;;;11.83;;
2147;SDS011;1080;48.724;9.104;2022-12-16T04:58:05;18.23;;;10.63;;
2147;SDS011;1080;48.724;9.104;2022-12-16T05:00:50;21.13;;;11.70;;
2147;SDS011;1080;48.724;9.104;2022-12-16T05:03:35;20.03;;;11.13;;
2147;SDS011;1080;48.724;9.104;2022-12-16T05:06:20;18.07;;;11.23;;
2147;SDS011;1080;48.724;9.104;2022-12-16T05:09:05;18.07;;;11.27;;
2147;SDS011;1080;48.724;9.104;2022-12-16T05:11:51;18.30;;;11.43;;
2147;SDS011;1080;48.724;9.104;2022-12-16T05:14:35;21.67;;;12.40;;
2147;SDS011;1080;48.724;9.104;2022-12-16T05:17:20;20.50;;;12.30;;
2147;SDS011;1080;48.724;9.104;2022-12-16T05:20:05;18.20;;;10.13;;
2147;SDS011;1080;48.724;9.104;2022-12-16T05:22:50;19.10;;;10.70;;
2147;SDS011;1080;48.724;9.104;2022-12-16T05:25:35;20.57;;;12.27;;
2147;SDS011;1080;48.724;9.104;2022-12-16T05:28:21;18.20;;;9.93;;
2147;SDS011;1080;48.724;9.104;2022-12-16T05:31:05;16.20;;;10.47;;
2147;SDS011;1080;48.724;9.104;2022-12-16T05:33:49;18.70;;;10.60;;
2147;SDS011;1080;48.724;9.104;2022-12-16T05:36:34;24.77;;;11.77;;
2147;SDS011;1080;48.724;9.104;2022-12-16T05:39:19;23.63;;;13.37;;
2147;SDS011;1080;48.724;9.104;2022-12-16T05:42:03;25.80;;;14.47;;
2147;SDS011;1080;48.724;9.104;2022-12-16T05:44:49;22.60;;;12.47;;
2147;SDS011;1080;48.724;9.104;2022-12-16T05:47:33;27.80;;;15.10;;
2147;SDS011;1080;48.724;9.104;2022-12-16T05:50:18;21.77;;;12.53;;
2147;SDS011;1080;48.724;9.104;2022-12-16T05:53:02;23.40;;;12.67;;
2147;SDS011;1080;48.724;9.104;2022-12-16T05:55:47;18.00;;;12.50;;
2147;SDS011;1080;48.724;9.104;2022-12-16T05:58:31;18.30;;;11.07;;
2147;SDS011;1080;48.724;9.104;2022-12-16T06:01:17;15.77;;;9.80;;
2147;SDS011;1080;48.724;9.104;2022-12-16T06:04:02;21.70;;;11.10;;
2147;SDS011;1080;48.724;9.104;2022-12-16T06:06:46;15.83;;;9.90;;
2147;SDS011;1080;48.724;9.104;2022-12-16T06:09:31;17.87;;;9.57;;
2147;SDS011;1080;48.724;9.104;2022-12-16T06:12:15;18.67;;;9.20;;
2147;SDS011;1080;48.724;9.104;2022-12-16T06:15:00;16.43;;;10.60;;
2147;SDS011;1080;48.724;9.104;2022-12-16T06:17:47;15.60;;;10.40;;
2147;SDS011;1080;48.724;9.104;2022-12-16T06:20:32;20.43;;;10.43;;
2147;SDS011;1080;48.724;9.104;2022-12-16T06:23:17;19.60;;;10.90;;
2147;SDS011;1080;48.724;9.104;2022-12-16T06:26:01;18.90;;;8.70;;
2147;SDS011;1080;48.724;9.104;2022-12-16T06:28:46;14.60;;;9.23;;
2147;SDS011;1080;48.724;9.104;2022-12-16T06:31:30;16.00;;;9.40;;
2147;SDS011;1080;48.724;9.104;2022-12-16T06:34:16;17.93;;;11.50;;
2147;SDS011;1080;48.724;9.104;2022-12-16T06:37:01;15.53;;;8.73;;
2147;SDS011;1080;48.724;9.104;2022-12-16T06:39:45;15.97;;;10.07;;
2147;SDS011;1080;48.724;9.104;2022-12-16T06:42:30;17.57;;;9.50;;
2147;SDS011;1080;48.724;9.104;2022-12-16T06:45:14;16.47;;;9.03;;
2147;SDS011;1080;48.724;9.104;2022-12-16T06:47:59;18.63;;;10.30;;
2147;SDS011;1080;48.724;9.104;2022-12-16T06:50:45;19.73;;;9.67;;
2147;SDS011;1080;48.724;9.104;2022-12-16T06:53:29;16.53;;;9.20;;
2147;SDS011;1080;48.724;9.104;2022-12-16T06:56:14;18.17;;;10.67;;
2147;SDS011;1080;48.724;9.104;2022-12-16T06:58:59;15.30;;;9.43;;
2147;SDS011;1080;48.724;9.104;2022-12-16T07:01:49;17.67;;;9.07;;
2147;SDS011;1080;48.724;9.104;2022-12-16T07:04:33;23.97;;;10.10;;
2147;SDS011;1080;48.724;9.104;2022-12-16T07:07:19;14.77;;;8.47;;
2147;SDS011;1080;48.724;9.104;2022-12-16T07:10:05;14.70;;;7.77;;
2147;SDS011;1080;48.724;9.104;2022-12-16T07:12:49;15.97;;;9.50;;
2147;SDS011;1080;48.724;9.104;2022-12-16T07:15:34;18.10;;;10.30;;
2147;SDS011;1080;48.724;9.104;2022-12-16T07:18:19;13.57;;;8.00;;
2147;SDS011;1080;48.724;9.104;2022-12-16T07:21:04;12.80;;;9.33;;
2147;SDS011;1080;48.724;9.104;2022-12-16T07:23:50;20.63;;;10.40;;
2147;SDS011;1080;48.724;9.104;2022-12-16T07:26:34;15.60;;;9.17;;
2147;SDS011;1080;48.724;9.104;2022-12-16T07:29:18;12.70;;;8.50;;
2147;SDS011;1080;48.724;9.104;2022-12-16T07:32:03;15.23;;;8.13;;
2147;SDS011;1080;48.724;9.104;2022-12-16T07:34:48;18.43;;;8.40;;
2147;SDS011;1080;48.724;9.104;2022-12-16T07:37:33;17.27;;;9.03;;
2147;SDS011;1080;48.724;9.104;2022-12-16T07:40:19;16.73;;;9.23;;
2147;SDS011;1080;48.724;9.104;2022-12-16T07:43:03;13.50;;;8.80;;
2147;SDS011;1080;48.724;9.104;2022-12-16T07:45:47;15.47;;;9.07;;
2147;SDS011;1080;48.724;9.104;2022-12-16T07:48:32;16.07;;;8.53;;
2147;SDS011;1080;48.724;9.104;2022-12-16T07:51:17;15.90;;;8.80;;
2147;SDS011;1080;48.724;9.104;2022-12-16T07:53:58;14.70;;;8.70;;
2147;SDS011;1080;48.724;9.104;2022-12-16T07:56:44;12.90;;;8.07;;
2147;SDS011;1080;48.724;9.104;2022-12-16T07:59:28;10.83;;;6.47;;
2147;SDS011;1080;48.724;9.104;2022-12-16T08:02:13;14.80;;;8.30;;
2147;SDS011;1080;48.724;9.104;2022-12-16T08:04:57;16.37;;;9.90;;
2147;SDS011;1080;48.724;9.104;2022-12-16T08:07:42;12.40;;;7.13;;
2147;SDS011;1080;48.724;9.104;2022-12-16T08:10:27;13.13;;;7.97;;
2147;SDS011;1080;48.724;9.104;2022-12-16T08:13:13;14.70;;;7.73;;
2147;SDS011;1080;48.724;9.104;2022-12-16T08:15:57;15.37;;;8.30;;
2147;SDS011;1080;48.724;9.104;2022-12-16T08:18:41;14.67;;;7.97;;
2147;SDS011;1080;48.724;9.104;2022-12-16T08:21:26;13.47;;;8.90;;
2147;SDS011;1080;48.724;9.104;2022-12-16T08:24:11;11.50;;;7.10;;
2147;SDS011;1080;48.724;9.104;2022-12-16T08:26:55;17.47;;;9.67;;
2147;SDS011;1080;48.724;9.104;2022-12-16T08:29:41;13.00;;;8.70;;
2147;SDS011;1080;48.724;9.104;2022-12-16T08:32:30;14.87;;;9.23;;
2147;SDS011;1080;48.724;9.104;2022-12-16T08:35:16;13.73;;;9.23;;
2147;SDS011;1080;48.724;9.104;2022-12-16T08:38:00;11.67;;;7.40;;
2147;SDS011;1080;48.724;9.104;2022-12-16T08:40:53;12.00;;;7.43;;
2147;SDS011;1080;48.724;9.104;2022-12-16T08:43:37;13.73;;;8.03;;
2147;SDS011;1080;48.724;9.104;2022-12-16T08:46:24;14.23;;;7.13;;
2147;SDS011;1080;48.724;9.104;2022-12-16T08:49:08;17.20;;;7.53;;
2147;SDS011;1080;48.724;9.104;2022-12-16T08:51:53;12.40;;;7.37;;
2147;SDS011;1080;48.724;9.104;2022-12-16T08:54:37;11.60;;;7.63;;
2147;SDS011;1080;48.724;9.104;2022-12-16T08:57:22;17.43;;;9.73;;
2147;SDS011;1080;48.724;9.104;2022-12-16T09:00:03;13.93;;;7.97;;
2147;SDS011;1080;48.724;9.104;2022-12-16T09:02:53;13.50;;;8.00;;
2147;SDS011;1080;48.724;9.104;2022-12-16T09:05:38;12.27;;;7.10;;
2147;SDS011;1080;48.724;9.104;2022-12-16T09:08:22;13.53;;;7.70;;
2147;SDS011;1080;48.724;9.104;2022-12-16T09:11:07;12.10;;;6.20;;
2147;SDS011;1080;48.724;9.104;2022-12-16T09:13:54;12.50;;;6.33;;
2147;SDS011;1080;48.724;9.104;2022-12-16T09:16:38;13.33;;;7.10;;
2147;SDS011;1080;48.724;9.104;2022-12-16T09:19:24;17.80;;;7.37;;
2147;SDS011;1080;48.724;9.104;2022-12-16T09:22:09;11.23;;;7.13;;
2147;SDS011;1080;48.724;9.104;2022-12-16T09:24:53;15.40;;;7.67;;
2147;SDS011;1080;48.724;9.104;2022-12-16T09:27:38;10.70;;;6.10;;
2147;SDS011;1080;48.724;9.104;2022-12-16T09:30:22;10.63;;;6.57;;
2147;SDS011;1080;48.724;9.104;2022-12-16T09:33:07;11.30;;;6.83;;
2147;SDS011;1080;48.724;9.104;2022-12-16T09:35:53;7.77;;;4.70;;
2147;SDS011;1080;48.724;9.104;2022-12-16T09:38:37;9.17;;;5.30;;
2147;SDS011;1080;48.724;9.104;2022-12-16T09:41:25;8.30;;;5.03;;
2147;SDS011;1080;48.724;9.104;2022-12-16T09:44:19;8.60;;;5.10;;
2147;SDS011;1080;48.724;9.104;2022-12-16T09:47:12;11.33;;;6.63;;
2147;SDS011;1080;48.724;9.104;2022-12-16T09:50:02;9.67;;;5.43;;
2147;SDS011;1080;48.724;9.104;2022-12-16T09:52:49;9.07;;;5.47;;
2147;SDS011;1080;48.724;9.104;2022-12-16T09:55:39;8.90;;;5.37;;
2147;SDS011;1080;48.724;9.104;2022-12-16T09:58:25;8.40;;;4.70;;
2147;SDS011;1080;48.724;9.104;2022-12-16T10:01:19;8.93;;;4.60;;
2147;SDS011;1080;48.724;9.104;2022-12-16T10:04:04;6.67;;;4.63;;
2147;SDS011;1080;48.724;9.104;2022-12-16T10:06:51;7.13;;;5.10;;
2147;SDS011;1080;48.724;9.104;2022-12-16T10:09:40;8.40;;;4.83;;
2147;SDS011;1080;48.724;9.104;2022-12-16T10:12:34;8.80;;;6.00;;
2147;SDS011;1080;48.724;9.104;2022-12-16T10:15:27;10.87;;;5.87;;
2147;SDS011;1080;48.724;9.104;2022-12-16T10:18:20;9.70;;;4.97;;
2147;SDS011;1080;48.724;9.104;2022-12-16T10:21:10;12.07;;;5.50;;
2147;SDS011;1080;48.724;9.104;2022-12-16T10:24:03;13.77;;;6.00;;
2147;SDS011;1080;48.724;9.104;2022-12-16T10:27:02;7.73;;;5.73;;
2147;SDS011;1080;48.724;9.104;2022-12-16T10:29:52;11.00;;;4.73;;
2147;SDS011;1080;48.724;9.104;2022-12-16T10:32:39;10.97;;;5.43;;
2147;SDS011;1080;48.724;9.104;2022-12-16T10:35:26;9.30;;;5.83;;
2147;SDS011;1080;48.724;9.104;2022-12-16T10:38:17;11.60;;;6.43;;
2147;SDS011;1080;48.724;9.104;2022-12-16T10:41:05;8.53;;;4.97;;
2147;SDS011;1080;48.724;9.104;2022-12-16T10:43:51;11.40;;;6.00;;
2147;SDS011;1080;48.724;9.104;2022-12-16T10:46:38;7.00;;;4.90;;
2147;SDS011;1080;48.724;9.104;2022-12-16T10:49:23;12.97;;;5.30;;
2147;SDS011;1080;48.724;9.104;2022-12-16T10:52:08;6.93;;;4.10;;
2147;SDS011;1080;48.724;9.104;2022-12-16T10:54:57;13.00;;;5.00;;
2147;SDS011;1080;48.724;9.104;2022-12-16T10:57:55;10.60;;;4.63;;
2147;SDS011;1080;48.724;9.104;2022-12-16T11:00:50;10.20;;;5.07;;
2147;SDS011;1080;48.724;9.104;2022-12-16T11:03:35;6.63;;;3.93;;
2147;SDS011;1080;48.724;9.104;2022-12-16T11:06:22;13.60;;;5.00;;
2147;SDS011;1080;48.724;9.104;2022-12-16T11:09:23;11.03;;;4.50;;
2147;SDS011;1080;48.724;9.104;2022-12-16T11:12:16;11.80;;;5.30;;
2147;SDS011;1080;48.724;9.104;2022-12-16T11:15:16;7.27;;;4.37;;
2147;SDS011;1080;48.724;9.104;2022-12-16T11:18:09;7.27;;;4.53;;
2147;SDS011;1080;48.724;9.104;2022-12-16T11:21:04;8.57;;;5.13;;
2147;SDS011;1080;48.724;9.104;2022-12-16T11:24:01;8.90;;;5.80;;
2147;SDS011;1080;48.724;9.104;2022-12-16T11:26:51;7.13;;;4.77;;
2147;SDS011;1080;48.724;9.104;2022-12-16T11:29:38;11.17;;;5.00;;
2147;SDS011;1080;48.724;9.104;2022-12-16T11:32:38;7.70;;;4.87;;
2147;SDS011;1080;48.724;9.104;2022-12-16T11:35:29;7.63;;;4.87;;
2147;SDS011;1080;48.724;9.104;2022-12-16T11:38:17;7.13;;;4.87;;
2147;SDS011;1080;48.724;9.104;2022-12-16T11:41:06;9.00;;;4.10;;
2147;SDS011;1080;48.724;9.104;2022-12-16T11:43:53;8.77;;;4.70;;
2147;SDS011;1080;48.724;9.104;2022-12-16T11:46:39;5.83;;;4.17;;
2147;SDS011;1080;48.724;9.104;2022-12-16T11:49:35;7.63;;;4.40;;
2147;SDS011;1080;48.724;9.104;2022-12-16T11:52:22;6.67;;;4.10;;
2147;SDS011;1080;48.724;9.104;2022-12-16T11:55:12;6.17;;;4.07;;
2147;SDS011;1080;48.724;9.104;2022-12-16T11:58:03;6.63;;;4.27;;
2147;SDS011;1080;48.724;9.104;2022-12-16T12:01:02;6.27;;;3.93;;
2147;SDS011;1080;48.724;9.104;2022-12-16T12:03:53;10.40;;;4.93;;
2147;SDS011;1080;48.724;9.104;2022-12-16T12:06:41;7.20;;;4.17;;
2147;SDS011;1080;48.724;9.104;2022-12-16T12:09:44;8.03;;;4.50;;
2147;SDS011;1080;48.724;9.104;2022-12-16T12:12:35;8.40;;;4.80;;
2147;SDS011;1080;48.724;9.104;2022-12-16T12:15:27;5.30;;;4.00;;
2147;SDS011;1080;48.724;9.104;2022-12-16T12:18:18;7.10;;;3.80;;
2147;SDS011;1080;48.724;9.104;2022-12-16T12:21:08;8.83;;;5.17;;
2147;SDS011;1080;48.724;9.104;2022-12-16T12:24:00;5.47;;;4.00;;
2147;SDS011;1080;48.724;9.104;2022-12-16T12:26:59;9.50;;;5.00;;
2147;SDS011;1080;48.724;9.104;2022-12-16T12:29:50;5.50;;;3.73;;
2147;SDS011;1080;48.724;9.104;2022-12-16T12:32:42;6.30;;;3.37;;
2147;SDS011;1080;48.724;9.104;2022-12-16T12:35:36;6.10;;;3.80;;
2147;SDS011;1080;48.724;9.104;2022-12-16T12:38:33;4.70;;;3.50;;
2147;SDS011;1080;48.724;9.104;2022-12-16T12:41:26;6.80;;;4.00;;
2147;SDS011;1080;48.724;9.104;2022-12-16T12:44:14;6.93;;;4.23;;
2147;SDS011;1080;48.724;9.104;2022-12-16T12:47:04;6.07;;;4.63;;
2147;SDS011;1080;48.724;9.104;2022-12-16T12:49:54;7.00;;;4.17;;
2147;SDS011;1080;48.724;9.104;2022-12-16T12:53:02;9.77;;;5.10;;
2147;SDS011;1080;48.724;9.104;2022-12-16T12:55:56;6.70;;;4.40;;
2147;SDS011;1080;48.724;9.104;2022-12-16T12:58:52;10.63;;;4.80;;
2147;SDS011;1080;48.724;9.104;2022-12-16T13:01:40;8.63;;;4.93;;
2147;SDS011;1080;48.724;9.104;2022-12-16T13:04:25;6.20;;;3.87;;
2147;SDS011;1080;48.724;9.104;2022-12-16T13:07:12;12.17;;;4.23;;
2147;SDS011;1080;48.724;9.104;2022-12-16T13:10:14;6.30;;;3.57;;
2147;SDS011;1080;48.724;9.104;2022-12-16T13:13:21;4.93;;;3.57;;
2147;SDS011;1080;48.724;9.104;2022-12-16T13:19:42;6.10;;;4.30;;
2147;SDS011;1080;48.724;9.104;2022-12-16T13:22:28;9.57;;;4.40;;
2147;SDS011;1080;48.724;9.104;2022-12-16T13:28:19;5.87;;;4.23;;
2147;SDS011;1080;48.724;9.104;2022-12-16T13:31:04;6.30;;;3.70;;
2147;SDS011;1080;48.724;9.104;2022-12-16T13:33:51;5.20;;;3.70;;
2147;SDS011;1080;48.724;9.104;2022-12-16T13:36:36;8.07;;;4.73;;
2147;SDS011;1080;48.724;9.104;2022-12-16T13:39:22;11.23;;;4.90;;
2147;SDS011;1080;48.724;9.104;2022-12-16T13:45:33;23.80;;;5.50;;
2147;SDS011;1080;48.724;9.104;2022-12-16T13:48:27;9.37;;;4.50;;
2147;SDS011;1080;48.724;9.104;2022-12-16T13:54:43;9.50;;;4.60;;
2147;SDS011;1080;48.724;9.104;2022-12-16T13:57:35;7.93;;;4.40;;
2147;SDS011;1080;48.724;9.104;2022-12-16T14:00:24;7.40;;;4.20;;
2147;SDS011;1080;48.724;9.104;2022-12-16T14:03:10;10.50;;;5.77;;
2147;SDS011;1080;48.724;9.104;2022-12-16T14:06:00;8.00;;;4.20;;
2147;SDS011;1080;48.724;9.104;2022-12-16T14:08:48;5.80;;;4.07;;
2147;SDS011;1080;48.724;9.104;2022-12-16T14:11:35;6.60;;;4.00;;
2147;SDS011;1080;48.724;9.104;2022-12-16T14:14:30;8.77;;;4.27;;
2147;SDS011;1080;48.724;9.104;2022-12-16T14:17:20;6.67;;;4.10;;
2147;SDS011;1080;48.724;9.104;2022-12-16T14:20:11;8.77;;;4.63;;
2147;SDS011;1080;48.724;9.104;2022-12-16T14:23:02;6.07;;;4.40;;
2147;SDS011;1080;48.724;9.104;2022-12-16T14:25:56;4.97;;;3.37;;
2147;SDS011;1080;48.724;9.104;2022-12-16T14:28:45;6.33;;;3.90;;
2147;SDS011;1080;48.724;9.104;2022-12-16T14:31:33;8.13;;;4.13;;
2147;SDS011;1080;48.724;9.104;2022-12-16T14:34:20;9.20;;;5.33;;
2147;SDS011;1080;48.724;9.104;2022-12-16T14:37:06;7.07;;;4.17;;
2147;SDS011;1080;48.724;9.104;2022-12-16T14:39:55;6.73;;;4.27;;
2147;SDS011;1080;48.724;9.104;2022-12-16T14:42:41;7.27;;;4.93;;
2147;SDS011;1080;48.724;9.104;2022-12-16T14:45:27;7.53;;;4.73;;
2147;SDS011;1080;48.724;9.104;2022-12-16T14:48:13;6.27;;;4.03;;
2147;SDS011;1080;48.724;9.104;2022-12-16T14:54:22;7.80;;;4.50;;
2147;SDS011;1080;48.724;9.104;2022-12-16T14:57:10;6.77;;;4.70;;
2147;SDS011;1080;48.724;9.104;2022-12-16T15:00:00;11.27;;;5.33;;
2147;SDS011;1080;48.724;9.104;2022-12-16T15:02:47;8.70;;;4.87;;
2147;SDS011;1080;48.724;9.104;2022-12-16T15:05:35;11.20;;;5.80;;
2147;SDS011;1080;48.724;9.104;2022-12-16T15:08:22;9.13;;;4.33;;
2147;SDS011;1080;48.724;9.104;2022-12-16T15:11:22;8.00;;;5.00;;
2147;SDS011;1080;48.724;9.104;2022-12-16T15:14:08;6.53;;;5.60;;
2147;SDS011;1080;48.724;9.104;2022-12-16T15:16:56;9.80;;;5.03;;
2147;SDS011;1080;48.724;9.104;2022-12-16T15:19:42;7.37;;;4.33;;
2147;SDS011;1080;48.724;9.104;2022-12-16T15:22:29;6.63;;;4.37;;
2147;SDS011;1080;48.724;9.104;2022-12-16T15:25:21;10.20;;;5.30;;
2147;SDS011;1080;48.724;9.104;2022-12-16T15:28:21;9.23;;;5.27;;
2147;SDS011;1080;48.724;9.104;2022-12-16T15:31:20;8.60;;;4.60;;
2147;SDS011;1080;48.724;9.104;2022-12-16T15:34:19;8.50;;;4.40;;
2147;SDS011;1080;48.724;9.104;2022-12-16T15:37:16;9.57;;;5.43;;
2147;SDS011;1080;48.724;9.104;2022-12-16T15:40:03;10.63;;;5.57;;
2147;SDS011;1080;48.724;9.104;2022-12-16T15:42:49;9.80;;;5.97;;
2147;SDS011;1080;48.724;9.104;2022-12-16T15:45:34;6.90;;;4.87;;
2147;SDS011;1080;48.724;9.104;2022-12-16T15:48:20;7.07;;;4.80;;
2147;SDS011;1080;48.724;9.104;2022-12-16T15:51:27;7.67;;;4.47;;
2147;SDS011;1080;48.724;9.104;2022-12-16T15:54:14;10.63;;;6.90;;
2147;SDS011;1080;48.724;9.104;2022-12-16T15:57:00;11.30;;;6.30;;
2147;SDS011;1080;48.724;9.104;2022-12-16T15:59:53;10.97;;;6.00;;
2147;SDS011;1080;48.724;9.104;2022-12-16T16:02:44;10.80;;;5.57;;
2147;SDS011;1080;48.724;9.104;2022-12-16T16:05:30;12.83;;;6.67;;
2147;SDS011;1080;48.724;9.104;2022-12-16T16:08:16;10.07;;;6.50;;
2147;SDS011;1080;48.724;9.104;2022-12-16T16:11:01;11.10;;;6.87;;
2147;SDS011;1080;48.724;9.104;2022-12-16T16:13:45;10.07;;;6.97;;
2147;SDS011;1080;48.724;9.104;2022-12-16T16:16:26;9.80;;;6.90;;
2147;SDS011;1080;48.724;9.104;2022-12-16T16:19:11;10.47;;;6.33;;
2147;SDS011;1080;48.724;9.104;2022-12-16T16:22:02;10.43;;;6.20;;
2147;SDS011;1080;48.724;9.104;2022-12-16T16:24:48;12.63;;;7.40;;
2147;SDS011;1080;48.724;9.104;2022-12-16T16:27:32;8.37;;;5.40;;
2147;SDS011;1080;48.724;9.104;2022-12-16T16:30:17;13.77;;;7.23;;
2147;SDS011;1080;48.724;9.104;2022-12-16T16:33:07;12.17;;;5.90;;
2147;SDS011;1080;48.724;9.104;2022-12-16T16:35:52;12.47;;;6.10;;
2147;SDS011;1080;48.724;9.104;2022-12-16T16:38:37;11.80;;;6.30;;
2147;SDS011;1080;48.724;9.104;2022-12-16T16:41:25;8.53;;;5.87;;
2147;SDS011;1080;48.724;9.104;2022-12-16T16:44:18;12.57;;;7.10;;
2147;SDS011;1080;48.724;9.104;2022-12-16T16:47:02;7.13;;;4.70;;
2147;SDS011;1080;48.724;9.104;2022-12-16T16:49:47;10.53;;;6.00;;
2147;SDS011;1080;48.724;9.104;2022-12-16T16:52:31;11.17;;;6.20;;
2147;SDS011;1080;48.724;9.104;2022-12-16T16:55:16;9.80;;;6.07;;